sensor_id;sensor_type;location;lat;lon;timestamp;pressure;altitude;pressure_sealevel;temperature;humidity
47670;BME280;33408;52.062;11.722;2024-02-14T00:01:18;101438.56;;;3.54;100.00
47670;BME280;33408;52.062;11.722;2024-02-14T00:03:45;101442.09;;;3.60;100.00
47670;BME280;33408;52.062;11.722;2024-02-14T00:06:13;101447.22;;;3.59;100.00
47670;BME280;33408;52.062;11.722;2024-02-14T00:08:39;101440.47;;;3.62;100.00
47670;BME280;33408;52.062;11.722;2024-02-14T00:11:06;101437.19;;;3.70;100.00
47670;BME280;33408;52.062;11.722;2024-02-14T00:13:32;101438.97;;;3.72;100.00
47670;BME280;33408;52.062;11.722;2024-02-14T00:16:02;101437.97;;;3.65;100.00
47670;BME280;33408;52.062;11.722;2024-02-14T00:18:29;101435.44;;;3.67;100.00
47670;BME280;33408;52.062;11.722;2024-02-14T00:20:55;101433.78;;;3.69;100.00
47670;BME280;33408;52.062;11.722;2024-02-14T00:23:22;101433.69;;;3.66;100.00
47670;BME280;33408;52.062;11.722;2024-02-14T00:25:48;101432.75;;;3.61;100.00
47670;BME280;33408;52.062;11.722;2024-02-14T00:28:15;101437.97;;;3.65;100.00
47670;BME280;33408;52.062;11.722;2024-02-14T00:30:42;101438.00;;;3.69;100.00
47670;BME280;33408;52.062;11.722;2024-02-14T00:33:10;101431.50;;;3.84;100.00
47670;BME280;33408;52.062;11.722;2024-02-14T00:35:36;101430.41;;;3.73;100.00
47670;BME280;33408;52.062;11.722;2024-02-14T00:38:03;101433.97;;;3.80;100.00
47670;BME280;33408;52.062;11.722;2024-02-14T00:40:30;101428.13;;;3.86;100.00
47670;BME280;33408;52.062;11.722;2024-02-14T00:42:57;101433.94;;;3.77;100.00
47670;BME280;33408;52.062;11.722;2024-02-14T00:45:24;101438.38;;;3.86;100.00
47670;BME280;33408;52.062;11.722;2024-02-14T00:47:50;101438.28;;;3.81;100.00
47670;BME280;33408;52.062;11.722;2024-02-14T00:50:19;101440.06;;;3.83;100.00
47670;BME280;33408;52.062;11.722;2024-02-14T00:52:46;101436.72;;;3.89;100.00
47670;BME280;33408;52.062;11.722;2024-02-14T00:55:12;101441.06;;;3.92;100.00
47670;BME280;33408;52.062;11.722;2024-02-14T00:57:39;101429.19;;;3.97;100.00
47670;BME280;33408;52.062;11.722;2024-02-14T01:00:07;101436.16;;;4.04;100.00
47670;BME280;33408;52.062;11.722;2024-02-14T01:02:34;101435.38;;;4.07;100.00
47670;BME280;33408;52.062;11.722;2024-02-14T01:05:01;101433.59;;;4.03;100.00
47670;BME280;33408;52.062;11.722;2024-02-14T01:07:28;101428.63;;;4.12;100.00
47670;BME280;33408;52.062;11.722;2024-02-14T01:09:55;101430.19;;;4.04;100.00
47670;BME280;33408;52.062;11.722;2024-02-14T01:12:22;101420.81;;;4.06;100.00
47670;BME280;33408;52.062;11.722;2024-02-14T01:14:48;101409.66;;;4.04;100.00
47670;BME280;33408;52.062;11.722;2024-02-14T01:17:15;101408.81;;;4.03;100.00
47670;BME280;33408;52.062;11.722;2024-02-14T01:19:42;101407.13;;;4.05;100.00
47670;BME280;33408;52.062;11.722;2024-02-14T01:22:09;101402.81;;;4.03;100.00
47670;BME280;33408;52.062;11.722;2024-02-14T01:24:37;101392.69;;;4.12;100.00
47670;BME280;33408;52.062;11.722;2024-02-14T01:27:04;101402.09;;;4.11;100.00
47670;BME280;33408;52.062;11.722;2024-02-14T01:29:31;101395.47;;;4.23;100.00
47670;BME280;33408;52.062;11.722;2024-02-14T01:31:57;101394.50;;;4.16;100.00
47670;BME280;33408;52.062;11.722;2024-02-14T01:34:24;101402.13;;;4.13;100.00
47670;BME280;33408;52.062;11.722;2024-02-14T01:36:50;101404.81;;;4.19;100.00
47670;BME280;33408;52.062;11.722;2024-02-14T01:39:17;101400.31;;;4.07;100.00
47670;BME280;33408;52.062;11.722;2024-02-14T01:41:46;101391.00;;;4.11;100.00
47670;BME280;33408;52.062;11.722;2024-02-14T01:44:13;101389.31;;;4.13;100.00
47670;BME280;33408;52.062;11.722;2024-02-14T01:46:40;101387.75;;;4.21;100.00
47670;BME280;33408;52.062;11.722;2024-02-14T01:49:08;101385.31;;;4.29;100.00
47670;BME280;33408;52.062;11.722;2024-02-14T01:51:35;101376.84;;;4.34;100.00
47670;BME280;33408;52.062;11.722;2024-02-14T01:54:03;101379.94;;;4.15;100.00
47670;BME280;33408;52.062;11.722;2024-02-14T01:56:29;101368.88;;;4.17;100.00
47670;BME280;33408;52.062;11.722;2024-02-14T01:58:58;101363.94;;;4.28;100.00
47670;BME280;33408;52.062;11.722;2024-02-14T02:01:26;101360.56;;;4.32;100.00
47670;BME280;33408;52.062;11.722;2024-02-14T02:03:53;101363.34;;;4.43;100.00
47670;BME280;33408;52.062;11.722;2024-02-14T02:06:20;101358.22;;;4.45;100.00
47670;BME280;33408;52.062;11.722;2024-02-14T02:08:47;101355.78;;;4.54;100.00
47670;BME280;33408;52.062;11.722;2024-02-14T02:11:13;101359.97;;;4.47;100.00
47670;BME280;33408;52.062;11.722;2024-02-14T02:13:40;101362.66;;;4.55;100.00
47670;BME280;33408;52.062;11.722;2024-02-14T02:16:08;101354.94;;;4.53;100.00
47670;BME280;33408;52.062;11.722;2024-02-14T02:18:35;101348.22;;;4.62;100.00
47670;BME280;33408;52.062;11.722;2024-02-14T02:21:03;101365.38;;;4.63;100.00
47670;BME280;33408;52.062;11.722;2024-02-14T02:23:33;101349.09;;;4.62;100.00
47670;BME280;33408;52.062;11.722;2024-02-14T02:26:08;101350.69;;;4.57;100.00
47670;BME280;33408;52.062;11.722;2024-02-14T02:28:35;101354.25;;;4.65;100.00
47670;BME280;33408;52.062;11.722;2024-02-14T02:31:05;101350.97;;;4.72;100.00
47670;BME280;33408;52.062;11.722;2024-02-14T02:33:34;101339.84;;;4.73;100.00
47670;BME280;33408;52.062;11.722;2024-02-14T02:36:01;101341.69;;;4.82;100.00
47670;BME280;33408;52.062;11.722;2024-02-14T02:38:27;101340.03;;;4.87;100.00
47670;BME280;33408;52.062;11.722;2024-02-14T02:40:54;101336.56;;;4.84;100.00
47670;BME280;33408;52.062;11.722;2024-02-14T02:43:22;101331.41;;;4.82;100.00
47670;BME280;33408;52.062;11.722;2024-02-14T02:45:48;101322.00;;;4.83;100.00
47670;BME280;33408;52.062;11.722;2024-02-14T02:48:15;101323.75;;;4.85;100.00
47670;BME280;33408;52.062;11.722;2024-02-14T02:50:41;101324.50;;;4.78;100.00
47670;BME280;33408;52.062;11.722;2024-02-14T02:53:09;101313.44;;;4.82;100.00
47670;BME280;33408;52.062;11.722;2024-02-14T02:55:37;101320.25;;;4.80;100.00
47670;BME280;33408;52.062;11.722;2024-02-14T02:58:04;101316.78;;;4.77;100.00
47670;BME280;33408;52.062;11.722;2024-02-14T03:00:32;101313.31;;;4.74;100.00
47670;BME280;33408;52.062;11.722;2024-02-14T03:02:59;101305.69;;;4.81;100.00
47670;BME280;33408;52.062;11.722;2024-02-14T03:05:26;101304.06;;;4.87;100.00
47670;BME280;33408;52.062;11.722;2024-02-14T03:07:52;101293.84;;;4.90;100.00
47670;BME280;33408;52.062;11.722;2024-02-14T03:10:19;101288.78;;;4.95;100.00
47670;BME280;33408;52.062;11.722;2024-02-14T03:12:47;101288.56;;;4.81;100.00
47670;BME280;33408;52.062;11.722;2024-02-14T03:15:14;101286.03;;;4.83;100.00
47670;BME280;33408;52.062;11.722;2024-02-14T03:17:42;101284.38;;;4.85;100.00
47670;BME280;33408;52.062;11.722;2024-02-14T03:20:10;101284.38;;;4.85;100.00
47670;BME280;33408;52.062;11.722;2024-02-14T03:22:38;101282.59;;;4.81;100.00
47670;BME280;33408;52.062;11.722;2024-02-14T03:25:08;101285.97;;;4.80;100.00
47670;BME280;33408;52.062;11.722;2024-02-14T03:27:34;101274.75;;;4.73;100.00
47670;BME280;33408;52.062;11.722;2024-02-14T03:30:02;101281.69;;;4.77;100.00
47670;BME280;33408;52.062;11.722;2024-02-14T03:32:29;101281.63;;;4.72;100.00
47670;BME280;33408;52.062;11.722;2024-02-14T03:34:57;101286.75;;;4.72;100.00
47670;BME280;33408;52.062;11.722;2024-02-14T03:37:23;101273.78;;;4.65;100.00
47670;BME280;33408;52.062;11.722;2024-02-14T03:39:50;101277.97;;;4.58;100.00
47670;BME280;33408;52.062;11.722;2024-02-14T03:42:17;101278.81;;;4.57;100.00
47670;BME280;33408;52.062;11.722;2024-02-14T03:44:45;101279.69;;;4.57;100.00
47670;BME280;33408;52.062;11.722;2024-02-14T03:47:12;101278.00;;;4.60;100.00
47670;BME280;33408;52.062;11.722;2024-02-14T03:49:39;101273.63;;;4.54;100.00
47670;BME280;33408;52.062;11.722;2024-02-14T03:52:07;101273.59;;;4.51;100.00
47670;BME280;33408;52.062;11.722;2024-02-14T03:54:35;101272.84;;;4.58;100.00
47670;BME280;33408;52.062;11.722;2024-02-14T03:57:02;101270.31;;;4.60;100.00
47670;BME280;33408;52.062;11.722;2024-02-14T03:59:29;101277.91;;;4.53;100.00
47670;BME280;33408;52.062;11.722;2024-02-14T04:01:56;101273.72;;;4.60;100.00
47670;BME280;33408;52.062;11.722;2024-02-14T04:04:23;101267.72;;;4.60;100.00
47670;BME280;33408;52.062;11.722;2024-02-14T04:06:50;101269.47;;;4.61;100.00
47670;BME280;33408;52.062;11.722;2024-02-14T04:09:19;101271.25;;;4.66;100.00
47670;BME280;33408;52.062;11.722;2024-02-14T04:11:45;101253.22;;;4.63;100.00
47670;BME280;33408;52.062;11.722;2024-02-14T04:14:13;101270.38;;;4.64;100.00
47670;BME280;33408;52.062;11.722;2024-02-14T04:16:40;101261.00;;;4.68;100.00
47670;BME280;33408;52.062;11.722;2024-02-14T04:19:06;101257.50;;;4.61;100.00
47670;BME280;33408;52.062;11.722;2024-02-14T04:21:34;101251.44;;;4.57;100.00
47670;BME280;33408;52.062;11.722;2024-02-14T04:24:00;101248.84;;;4.56;100.00
47670;BME280;33408;52.062;11.722;2024-02-14T04:26:28;101252.31;;;4.60;100.00
47670;BME280;33408;52.062;11.722;2024-02-14T04:28:55;101250.63;;;4.60;100.00
47670;BME280;33408;52.062;11.722;2024-02-14T04:31:22;101251.53;;;4.64;100.00
47670;BME280;33408;52.062;11.722;2024-02-14T04:33:49;101242.88;;;4.59;100.00
47670;BME280;33408;52.062;11.722;2024-02-14T04:36:17;101255.88;;;4.68;100.00
47670;BME280;33408;52.062;11.722;2024-02-14T04:38:44;101248.94;;;4.62;100.00
47670;BME280;33408;52.062;11.722;2024-02-14T04:41:10;101247.22;;;4.61;100.00
47670;BME280;33408;52.062;11.722;2024-02-14T04:43:38;101254.03;;;4.59;100.00
47670;BME280;33408;52.062;11.722;2024-02-14T04:46:05;101245.53;;;4.63;100.00
47670;BME280;33408;52.062;11.722;2024-02-14T04:48:33;101244.66;;;4.63;100.00
47670;BME280;33408;52.062;11.722;2024-02-14T04:51:00;101242.06;;;4.60;100.00
47670;BME280;33408;52.062;11.722;2024-02-14T04:53:27;101241.19;;;4.59;100.00
47670;BME280;33408;52.062;11.722;2024-02-14T04:55:54;101239.38;;;4.52;100.00
47670;BME280;33408;52.062;11.722;2024-02-14T04:58:20;101240.28;;;4.57;100.00
47670;BME280;33408;52.062;11.722;2024-02-14T05:00:48;101234.31;;;4.56;100.00
47670;BME280;33408;52.062;11.722;2024-02-14T05:03:15;101241.94;;;4.52;100.00
47670;BME280;33408;52.062;11.722;2024-02-14T05:05:42;101243.59;;;4.47;100.00
47670;BME280;33408;52.062;11.722;2024-02-14T05:08:09;101232.44;;;4.45;100.00
47670;BME280;33408;52.062;11.722;2024-02-14T05:10:36;101237.66;;;4.51;100.00
47670;BME280;33408;52.062;11.722;2024-02-14T05:13:03;101232.44;;;4.45;100.00
47670;BME280;33408;52.062;11.722;2024-02-14T05:15:30;101230.78;;;4.50;100.00
47670;BME280;33408;52.062;11.722;2024-02-14T05:17:57;101227.31;;;4.46;100.00
47670;BME280;33408;52.062;11.722;2024-02-14T05:20:24;101230.75;;;4.47;100.00
47670;BME280;33408;52.062;11.722;2024-02-14T05:22:51;101233.34;;;4.48;100.00
47670;BME280;33408;52.062;11.722;2024-02-14T05:25:18;101233.50;;;4.59;100.00
47670;BME280;33408;52.062;11.722;2024-02-14T05:27:44;101224.69;;;4.42;100.00
47670;BME280;33408;52.062;11.722;2024-02-14T05:30:12;101221.41;;;4.52;100.00
47670;BME280;33408;52.062;11.722;2024-02-14T05:32:40;101223.09;;;4.50;100.00
47670;BME280;33408;52.062;11.722;2024-02-14T05:35:08;101213.84;;;4.61;100.00
47670;BME280;33408;52.062;11.722;2024-02-14T05:37:34;101203.56;;;4.61;100.00
47670;BME280;33408;52.062;11.722;2024-02-14T05:40:02;101211.25;;;4.60;100.00
47670;BME280;33408;52.062;11.722;2024-02-14T05:42:31;101213.09;;;4.70;100.00
47670;BME280;33408;52.062;11.722;2024-02-14T05:44:59;101207.91;;;4.68;100.00
47670;BME280;33408;52.062;11.722;2024-02-14T05:47:28;101196.03;;;4.73;100.00
47670;BME280;33408;52.062;11.722;2024-02-14T05:49:55;101190.00;;;4.71;100.00
47670;BME280;33408;52.062;11.722;2024-02-14T05:52:23;101191.72;;;4.72;100.00
47670;BME280;33408;52.062;11.722;2024-02-14T05:54:50;101182.28;;;4.71;100.00
47670;BME280;33408;52.062;11.722;2024-02-14T05:57:17;101184.09;;;4.77;100.00
47670;BME280;33408;52.062;11.722;2024-02-14T05:59:43;101186.81;;;4.91;100.00
47670;BME280;33408;52.062;11.722;2024-02-14T06:02:10;101185.91;;;4.87;100.00
47670;BME280;33408;52.062;11.722;2024-02-14T06:04:36;101188.50;;;4.89;100.00
47670;BME280;33408;52.062;11.722;2024-02-14T06:07:03;101186.81;;;4.91;100.00
47670;BME280;33408;52.062;11.722;2024-02-14T06:09:33;101168.88;;;4.96;100.00
47670;BME280;33408;52.062;11.722;2024-02-14T06:12:00;101167.16;;;4.93;100.00
47670;BME280;33408;52.062;11.722;2024-02-14T06:14:26;101165.47;;;4.95;100.00
47670;BME280;33408;52.062;11.722;2024-02-14T06:16:54;101176.56;;;4.92;100.00
47670;BME280;33408;52.062;11.722;2024-02-14T06:19:23;101169.72;;;4.93;100.00
47670;BME280;33408;52.062;11.722;2024-02-14T06:21:50;101173.22;;;5.00;100.00
47670;BME280;33408;52.062;11.722;2024-02-14T06:24:16;101170.72;;;5.04;100.00
47670;BME280;33408;52.062;11.722;2024-02-14T06:26:45;101177.47;;;4.96;100.00
47670;BME280;33408;52.062;11.722;2024-02-14T06:29:12;101173.22;;;5.00;100.00
47670;BME280;33408;52.062;11.722;2024-02-14T06:31:39;101183.53;;;5.01;100.00
47670;BME280;33408;52.062;11.722;2024-02-14T06:34:05;101187.81;;;5.01;100.00
47670;BME280;33408;52.062;11.722;2024-02-14T06:36:33;101193.81;;;5.03;100.00
47670;BME280;33408;52.062;11.722;2024-02-14T06:39:00;101193.88;;;5.07;100.00
47670;BME280;33408;52.062;11.722;2024-02-14T06:41:26;101188.66;;;5.01;100.00
47670;BME280;33408;52.062;11.722;2024-02-14T06:43:55;101194.72;;;5.08;100.00
47670;BME280;33408;52.062;11.722;2024-02-14T06:46:22;101208.44;;;5.10;100.00
47670;BME280;33408;52.062;11.722;2024-02-14T06:48:49;101206.66;;;5.03;100.00
47670;BME280;33408;52.062;11.722;2024-02-14T06:51:15;101200.66;;;5.04;100.00
47670;BME280;33408;52.062;11.722;2024-02-14T06:53:42;101206.66;;;5.03;100.00
47670;BME280;33408;52.062;11.722;2024-02-14T06:56:09;101207.56;;;5.06;100.00
47670;BME280;33408;52.062;11.722;2024-02-14T06:58:35;101210.06;;;5.02;100.00
47670;BME280;33408;52.062;11.722;2024-02-14T07:01:03;101208.34;;;4.99;100.00
47670;BME280;33408;52.062;11.722;2024-02-14T07:03:30;101209.25;;;5.04;100.00
47670;BME280;33408;52.062;11.722;2024-02-14T07:05:57;101200.78;;;5.15;100.00
47670;BME280;33408;52.062;11.722;2024-02-14T07:08:26;101204.16;;;5.07;100.00
47670;BME280;33408;52.062;11.722;2024-02-14T07:10:54;101199.91;;;5.11;100.00
47670;BME280;33408;52.062;11.722;2024-02-14T07:13:21;101203.38;;;5.15;100.00
47670;BME280;33408;52.062;11.722;2024-02-14T07:15:47;101205.94;;;5.15;100.00
47670;BME280;33408;52.062;11.722;2024-02-14T07:18:15;101199.13;;;5.18;100.00
47670;BME280;33408;52.062;11.722;2024-02-14T07:20:42;101194.91;;;5.23;100.00
47670;BME280;33408;52.062;11.722;2024-02-14T07:23:08;101200.06;;;5.25;100.00
47670;BME280;33408;52.062;11.722;2024-02-14T07:25:35;101200.06;;;5.25;100.00
47670;BME280;33408;52.062;11.722;2024-02-14T07:28:02;101190.66;;;5.25;100.00
47670;BME280;33408;52.062;11.722;2024-02-14T07:30:28;101197.53;;;5.31;100.00
47670;BME280;33408;52.062;11.722;2024-02-14T07:32:55;101189.00;;;5.32;100.00
47670;BME280;33408;52.062;11.722;2024-02-14T07:35:23;101189.00;;;5.32;100.00
47670;BME280;33408;52.062;11.722;2024-02-14T07:37:51;101189.94;;;5.42;100.00
47670;BME280;33408;52.062;11.722;2024-02-14T07:40:17;101173.66;;;5.41;100.00
47670;BME280;33408;52.062;11.722;2024-02-14T07:42:44;101177.16;;;5.46;100.00
47670;BME280;33408;52.062;11.722;2024-02-14T07:45:10;101187.38;;;5.42;100.00
47670;BME280;33408;52.062;11.722;2024-02-14T07:47:37;101184.84;;;5.46;100.00
47670;BME280;33408;52.062;11.722;2024-02-14T07:50:06;101183.25;;;5.58;100.00
47670;BME280;33408;52.062;11.722;2024-02-14T07:52:34;101185.00;;;5.65;100.00
47670;BME280;33408;52.062;11.722;2024-02-14T07:55:01;101185.97;;;5.73;100.00
47670;BME280;33408;52.062;11.722;2024-02-14T07:57:28;101191.94;;;5.69;100.00
47670;BME280;33408;52.062;11.722;2024-02-14T07:59:54;101186.88;;;5.78;100.00
47670;BME280;33408;52.062;11.722;2024-02-14T08:02:21;101183.44;;;5.79;100.00
47670;BME280;33408;52.062;11.722;2024-02-14T08:04:47;101183.41;;;5.78;100.00
47670;BME280;33408;52.062;11.722;2024-02-14T08:07:14;101186.09;;;5.89;100.00
47670;BME280;33408;52.062;11.722;2024-02-14T08:09:42;101186.25;;;6.04;100.00
47670;BME280;33408;52.062;11.722;2024-02-14T08:12:08;101188.84;;;6.06;100.00
47670;BME280;33408;52.062;11.722;2024-02-14T08:14:35;101185.44;;;6.13;100.00
47670;BME280;33408;52.062;11.722;2024-02-14T08:17:02;101183.81;;;6.24;100.00
47670;BME280;33408;52.062;11.722;2024-02-14T08:19:29;101177.84;;;6.31;100.00
47670;BME280;33408;52.062;11.722;2024-02-14T08:21:56;101182.13;;;6.29;100.00
47670;BME280;33408;52.062;11.722;2024-02-14T08:24:25;101182.13;;;6.32;100.00
47670;BME280;33408;52.062;11.722;2024-02-14T08:26:53;101188.16;;;6.37;100.00
47670;BME280;33408;52.062;11.722;2024-02-14T08:29:20;101186.53;;;6.44;100.00
47670;BME280;33408;52.062;11.722;2024-02-14T08:31:46;101195.97;;;6.50;100.00
47670;BME280;33408;52.062;11.722;2024-02-14T08:34:13;101190.03;;;6.57;100.00
47670;BME280;33408;52.062;11.722;2024-02-14T08:36:40;101189.16;;;6.58;100.00
47670;BME280;33408;52.062;11.722;2024-02-14T08:39:07;101180.56;;;6.57;100.00
47670;BME280;33408;52.062;11.722;2024-02-14T08:41:35;101189.19;;;6.66;100.00
47670;BME280;33408;52.062;11.722;2024-02-14T08:44:03;101190.06;;;6.69;100.00
47670;BME280;33408;52.062;11.722;2024-02-14T08:46:30;101191.81;;;6.72;100.00
47670;BME280;33408;52.062;11.722;2024-02-14T08:49:00;101195.22;;;6.71;100.00
47670;BME280;33408;52.062;11.722;2024-02-14T08:51:27;101194.41;;;6.75;100.00
47670;BME280;33408;52.062;11.722;2024-02-14T08:53:54;101199.50;;;6.63;100.00
47670;BME280;33408;52.062;11.722;2024-02-14T08:56:22;101204.66;;;6.67;100.00
47670;BME280;33408;52.062;11.722;2024-02-14T08:58:49;101196.91;;;6.64;100.00
47670;BME280;33408;52.062;11.722;2024-02-14T09:01:17;101204.75;;;6.83;100.00
47670;BME280;33408;52.062;11.722;2024-02-14T09:03:45;101203.00;;;6.79;100.00
47670;BME280;33408;52.062;11.722;2024-02-14T09:06:13;101207.34;;;6.84;100.00
47670;BME280;33408;52.062;11.722;2024-02-14T09:08:40;101203.91;;;6.87;100.00
47670;BME280;33408;52.062;11.722;2024-02-14T09:11:07;101192.78;;;6.92;100.00
47670;BME280;33408;52.062;11.722;2024-02-14T09:13:34;101202.19;;;6.92;100.00
47670;BME280;33408;52.062;11.722;2024-02-14T09:16:01;101201.34;;;6.93;100.00
47670;BME280;33408;52.062;11.722;2024-02-14T09:18:29;101201.44;;;7.08;100.00
47670;BME280;33408;52.062;11.722;2024-02-14T09:20:56;101200.59;;;7.23;100.00
47670;BME280;33408;52.062;11.722;2024-02-14T09:23:23;101203.19;;;7.23;100.00
47670;BME280;33408;52.062;11.722;2024-02-14T09:25:50;101204.91;;;7.30;100.00
47670;BME280;33408;52.062;11.722;2024-02-14T09:28:17;101205.78;;;7.40;100.00
47670;BME280;33408;52.062;11.722;2024-02-14T09:30:44;101202.38;;;7.49;100.00
47670;BME280;33408;52.062;11.722;2024-02-14T09:33:10;101204.97;;;7.49;100.00
47670;BME280;33408;52.062;11.722;2024-02-14T09:35:39;101194.66;;;7.58;100.00
47670;BME280;33408;52.062;11.722;2024-02-14T09:38:09;101199.81;;;7.55;100.00
47670;BME280;33408;52.062;11.722;2024-02-14T09:40:36;101200.69;;;7.60;100.00
47670;BME280;33408;52.062;11.722;2024-02-14T09:43:05;101201.53;;;7.69;100.00
47670;BME280;33408;52.062;11.722;2024-02-14T09:45:37;101198.94;;;7.61;100.00
47670;BME280;33408;52.062;11.722;2024-02-14T09:48:07;101193.81;;;7.75;100.00
47670;BME280;33408;52.062;11.722;2024-02-14T09:50:34;101202.41;;;7.81;100.00
47670;BME280;33408;52.062;11.722;2024-02-14T09:53:03;101204.16;;;7.78;100.00
47670;BME280;33408;52.062;11.722;2024-02-14T09:55:30;101201.56;;;7.81;100.00
47670;BME280;33408;52.062;11.722;2024-02-14T09:57:58;101202.41;;;7.84;100.00
47670;BME280;33408;52.062;11.722;2024-02-14T10:00:31;101205.84;;;7.83;100.00
47670;BME280;33408;52.062;11.722;2024-02-14T10:02:57;101196.38;;;7.84;100.00
47670;BME280;33408;52.062;11.722;2024-02-14T10:05:24;101208.44;;;7.83;100.00
47670;BME280;33408;52.062;11.722;2024-02-14T10:07:51;101200.69;;;7.90;100.00
47670;BME280;33408;52.062;11.722;2024-02-14T10:10:20;101205.00;;;7.86;100.00
47670;BME280;33408;52.062;11.722;2024-02-14T10:12:47;101217.03;;;7.98;100.00
47670;BME280;33408;52.062;11.722;2024-02-14T10:15:13;101208.44;;;7.82;100.00
47670;BME280;33408;52.062;11.722;2024-02-14T10:17:40;101212.75;;;7.91;100.00
47670;BME280;33408;52.062;11.722;2024-02-14T10:20:08;101205.00;;;7.89;100.00
47670;BME280;33408;52.062;11.722;2024-02-14T10:22:35;101211.03;;;7.93;100.00
47670;BME280;33408;52.062;11.722;2024-02-14T10:25:02;101216.19;;;7.93;100.00
47670;BME280;33408;52.062;11.722;2024-02-14T10:27:30;101219.63;;;7.90;100.00
47670;BME280;33408;52.062;11.722;2024-02-14T10:29:57;101212.75;;;7.84;100.00
47670;BME280;33408;52.062;11.722;2024-02-14T10:32:25;101217.03;;;7.92;100.00
47670;BME280;33408;52.062;11.722;2024-02-14T10:34:52;101212.75;;;7.91;100.00
47670;BME280;33408;52.062;11.722;2024-02-14T10:37:21;101217.91;;;7.94;100.00
47670;BME280;33408;52.062;11.722;2024-02-14T10:39:48;101219.63;;;7.99;100.00
47670;BME280;33408;52.062;11.722;2024-02-14T10:42:17;101220.47;;;8.06;100.00
47670;BME280;33408;52.062;11.722;2024-02-14T10:44:46;101219.63;;;8.09;100.00
47670;BME280;33408;52.062;11.722;2024-02-14T10:47:19;101229.97;;;8.19;100.00
47670;BME280;33408;52.062;11.722;2024-02-14T10:49:47;101217.91;;;8.20;100.00
47670;BME280;33408;52.062;11.722;2024-02-14T10:52:16;101225.66;;;8.32;100.00
47670;BME280;33408;52.062;11.722;2024-02-14T10:54:48;101221.34;;;8.39;100.00
47670;BME280;33408;52.062;11.722;2024-02-14T10:57:19;101221.31;;;8.53;100.00
47670;BME280;33408;52.062;11.722;2024-02-14T10:59:49;101212.72;;;8.48;100.00
47670;BME280;33408;52.062;11.722;2024-02-14T11:02:16;101217.88;;;8.62;100.00
47670;BME280;33408;52.062;11.722;2024-02-14T11:04:45;101218.72;;;8.67;100.00
47670;BME280;33408;52.062;11.722;2024-02-14T11:07:12;101216.94;;;8.80;100.00
47670;BME280;33408;52.062;11.722;2024-02-14T11:09:40;101215.19;;;8.94;100.00
47670;BME280;33408;52.062;11.722;2024-02-14T11:12:08;101216.84;;;9.06;100.00
47670;BME280;33408;52.062;11.722;2024-02-14T11:14:35;101211.63;;;9.13;100.00
47670;BME280;33408;52.062;11.722;2024-02-14T11:17:09;101213.31;;;9.24;100.00
47670;BME280;33408;52.062;11.722;2024-02-14T11:19:35;101221.88;;;9.32;100.00
47670;BME280;33408;52.062;11.722;2024-02-14T11:22:10;101218.44;;;9.35;100.00
47670;BME280;33408;52.062;11.722;2024-02-14T11:24:37;101221.03;;;9.33;100.00
47670;BME280;33408;52.062;11.722;2024-02-14T11:27:09;101221.88;;;9.32;100.00
47670;BME280;33408;52.062;11.722;2024-02-14T11:29:38;101222.75;;;9.36;100.00
47670;BME280;33408;52.062;11.722;2024-02-14T11:32:06;101221.84;;;9.40;100.00
47670;BME280;33408;52.062;11.722;2024-02-14T11:34:35;101230.50;;;9.40;100.00
47670;BME280;33408;52.062;11.722;2024-02-14T11:37:02;101231.34;;;9.38;100.00
47670;BME280;33408;52.062;11.722;2024-02-14T11:39:29;101232.19;;;9.43;100.00
47670;BME280;33408;52.062;11.722;2024-02-14T11:41:57;101231.34;;;9.42;100.00
47670;BME280;33408;52.062;11.722;2024-02-14T11:44:24;101225.25;;;9.45;100.00
47670;BME280;33408;52.062;11.722;2024-02-14T11:46:51;101225.25;;;9.46;100.00
47670;BME280;33408;52.062;11.722;2024-02-14T11:49:19;101218.31;;;9.55;100.00
47670;BME280;33408;52.062;11.722;2024-02-14T11:51:46;101227.75;;;9.65;100.00
47670;BME280;33408;52.062;11.722;2024-02-14T11:54:14;101222.53;;;9.68;100.00
47670;BME280;33408;52.062;11.722;2024-02-14T11:56:40;101223.38;;;9.70;100.00
47670;BME280;33408;52.062;11.722;2024-02-14T11:59:07;101226.75;;;9.80;100.00
47670;BME280;33408;52.062;11.722;2024-02-14T12:01:36;101222.41;;;9.85;100.00
47670;BME280;33408;52.062;11.722;2024-02-14T12:04:04;101225.81;;;9.92;100.00
47670;BME280;33408;52.062;11.722;2024-02-14T12:06:34;101222.38;;;9.91;100.00
47670;BME280;33408;52.062;11.722;2024-02-14T12:09:01;101227.50;;;9.99;100.00
47670;BME280;33408;52.062;11.722;2024-02-14T12:11:30;101230.03;;;10.07;100.00
47670;BME280;33408;52.062;11.722;2024-02-14T12:14:01;101214.47;;;10.10;100.00
47670;BME280;33408;52.062;11.722;2024-02-14T12:16:28;101219.53;;;10.19;100.00
47670;BME280;33408;52.062;11.722;2024-02-14T12:19:03;101218.66;;;10.20;100.00
47670;BME280;33408;52.062;11.722;2024-02-14T12:21:35;101222.94;;;10.26;100.00
47670;BME280;33408;52.062;11.722;2024-02-14T12:24:02;101221.22;;;10.25;100.00
47670;BME280;33408;52.062;11.722;2024-02-14T12:26:30;101226.38;;;10.28;100.00
47670;BME280;33408;52.062;11.722;2024-02-14T12:28:57;101227.22;;;10.30;100.00
47670;BME280;33408;52.062;11.722;2024-02-14T12:31:24;101229.84;;;10.27;100.00
47670;BME280;33408;52.062;11.722;2024-02-14T12:33:52;101233.22;;;10.38;100.00
47670;BME280;33408;52.062;11.722;2024-02-14T12:36:22;101232.28;;;10.45;100.00
47670;BME280;33408;52.062;11.722;2024-02-14T12:38:50;101229.66;;;10.50;100.00
47670;BME280;33408;52.062;11.722;2024-02-14T12:41:18;101240.78;;;10.60;100.00